Time;durP1;ratioP1;P1;durP2;ratioP2;P2;SDS_P1;SDS_P2;PMS_P1;PMS_P2;Temp;Humidity;BMP_temperature;BMP_pressure;BME280_temperature;BME280_humidity;BME280_pressure;Samples;Min_cycle;Max_cycle;Signal;HPM_P1;HPM_P2
2022/01/05 00:00:59;;;;;;;;;;;12.30;90.20;;;;;;5017347;28;19914;-59
2022/01/05 00:03:24;;;;;;;;;;;12.30;90.20;;;;;;5001791;28;19917;-59
2022/01/05 00:05:50;;;;;;;;;;;12.30;90.20;;;;;;5015278;28;19982;-60
2022/01/05 00:08:18;;;;;;;;;;;12.20;90.20;;;;;;5025603;28;19916;-60
2022/01/05 00:10:43;;;;;;;;;;;12.20;90.40;;;;;;5027075;28;19909;-60
2022/01/05 00:13:09;;;;;;;;;;;12.20;90.50;;;;;;5014661;28;19924;-59
2022/01/05 00:15:34;;;;;;;;;;;12.20;90.50;;;;;;5000209;28;20696;-59
2022/01/05 00:18:00;;;;;;;;;;;12.20;90.50;;;;;;5001938;28;19913;-59
2022/01/05 00:20:25;;;;;;;;;;;12.20;90.60;;;;;;5002334;28;20308;-59
2022/01/05 00:22:51;;;;;;;;;;;12.10;90.60;;;;;;5019844;28;19916;-59
2022/01/05 00:25:17;;;;;;;;;;;12.20;90.60;;;;;;5009743;28;19920;-59
2022/01/05 00:27:42;;;;;;;;;;;12.10;90.60;;;;;;5018953;28;19913;-59
2022/01/05 00:30:08;;;;;;;;;;;12.10;90.60;;;;;;5003730;28;20056;-59
2022/01/05 00:32:33;;;;;;;;;;;12.20;90.60;;;;;;5004163;28;19909;-60
2022/01/05 00:34:59;;;;;;;;;;;12.10;90.60;;;;;;4999990;28;19913;-59
2022/01/05 00:37:24;;;;;;;;;;;12.10;90.70;;;;;;5000091;28;20160;-59
2022/01/05 00:39:50;;;;;;;;;;;12.10;90.70;;;;;;5003071;28;19917;-59
2022/01/05 00:42:15;;;;;;;;;;;12.10;90.60;;;;;;4992547;28;19914;-59
2022/01/05 00:44:41;;;;;;;;;;;12.10;90.60;;;;;;5005422;28;20342;-59
2022/01/05 00:47:06;;;;;;;;;;;12.00;90.60;;;;;;5028093;28;19917;-59
2022/01/05 00:49:32;;;;;;;;;;;12.00;90.60;;;;;;5007141;28;20435;-60
2022/01/05 00:51:57;;;;;;;;;;;12.00;90.70;;;;;;5008137;28;19919;-59
2022/01/05 00:54:23;;;;;;;;;;;12.00;90.70;;;;;;5027423;28;20001;-59
2022/01/05 00:56:48;;;;;;;;;;;12.00;90.80;;;;;;5006554;28;19959;-60
2022/01/05 00:59:13;;;;;;;;;;;12.00;90.90;;;;;;5005243;28;19913;-60
2022/01/05 01:01:39;;;;;;;;;;;12.00;90.90;;;;;;5021625;28;19925;-59
2022/01/05 01:04:04;;;;;;;;;;;11.90;91.30;;;;;;4991232;28;20034;-60
2022/01/05 01:06:32;;;;;;;;;;;11.90;91.00;;;;;;5008657;28;21304;-59
2022/01/05 01:08:57;;;;;;;;;;;11.90;91.10;;;;;;5027673;28;20343;-59
2022/01/05 01:11:23;;;;;;;;;;;11.90;91.20;;;;;;5022343;28;20352;-60
2022/01/05 01:13:48;;;;;;;;;;;11.90;91.30;;;;;;5010361;28;19913;-59
2022/01/05 01:16:14;;;;;;;;;;;11.90;91.20;;;;;;5026459;28;19920;-59
2022/01/05 01:18:39;;;;;;;;;;;11.80;91.20;;;;;;5027651;28;19920;-59
2022/01/05 01:21:04;;;;;;;;;;;11.80;91.20;;;;;;5027791;28;20330;-59
2022/01/05 01:23:30;;;;;;;;;;;11.80;91.30;;;;;;5008015;28;19909;-59
2022/01/05 01:25:55;;;;;;;;;;;11.70;91.30;;;;;;5027624;28;19913;-59
2022/01/05 01:28:21;;;;;;;;;;;11.80;91.30;;;;;;5026363;28;19913;-60
2022/01/05 01:30:47;;;;;;;;;;;11.80;91.20;;;;;;5007319;28;20021;-59
2022/01/05 01:33:13;;;;;;;;;;;11.70;91.10;;;;;;5020231;28;19944;-60
2022/01/05 01:35:38;;;;;;;;;;;11.70;91.10;;;;;;5027822;28;19909;-59
2022/01/05 01:38:03;;;;;;;;;;;11.70;91.10;;;;;;5031583;28;19913;-59
2022/01/05 01:40:29;;;;;;;;;;;11.70;91.00;;;;;;5026239;28;20407;-59
2022/01/05 01:42:54;;;;;;;;;;;11.70;91.10;;;;;;5028242;28;20016;-59
2022/01/05 01:45:20;;;;;;;;;;;11.60;91.00;;;;;;5032911;28;19949;-59
2022/01/05 01:47:46;;;;;;;;;;;11.60;91.10;;;;;;5015130;28;19909;-59
2022/01/05 01:50:11;;;;;;;;;;;11.60;91.00;;;;;;5011450;28;19916;-59
2022/01/05 01:52:37;;;;;;;;;;;11.60;91.00;;;;;;5029948;28;19909;-59
2022/01/05 01:55:02;;;;;;;;;;;11.60;91.10;;;;;;5011863;28;19958;-59
2022/01/05 01:57:28;;;;;;;;;;;11.50;91.10;;;;;;5014937;28;20368;-59
2022/01/05 01:59:57;;;;;;;;;;;11.60;91.10;;;;;;5012403;28;19917;-59
2022/01/05 02:02:23;;;;;;;;;;;11.50;91.10;;;;;;5030497;28;19925;-60
2022/01/05 02:04:48;;;;;;;;;;;11.50;91.10;;;;;;5029978;28;19928;-59
2022/01/05 02:07:14;;;;;;;;;;;11.50;91.10;;;;;;5015485;28;19931;-60
2022/01/05 02:09:40;;;;;;;;;;;11.40;91.10;;;;;;5017763;28;20420;-59
2022/01/05 02:12:05;;;;;;;;;;;11.40;91.00;;;;;;5030870;28;19917;-59
2022/01/05 02:14:31;;;;;;;;;;;11.40;91.00;;;;;;5032411;28;19916;-59
2022/01/05 02:16:58;;;;;;;;;;;11.40;91.00;;;;;;5029937;28;20229;-59
2022/01/05 02:19:23;;;;;;;;;;;11.40;91.00;;;;;;5028156;28;19967;-59
2022/01/05 02:21:49;;;;;;;;;;;11.40;91.00;;;;;;5008718;28;20015;-59
2022/01/05 02:24:14;;;;;;;;;;;11.30;91.00;;;;;;5030077;28;19913;-59
2022/01/05 02:26:41;;;;;;;;;;;11.30;90.90;;;;;;5014200;28;20047;-59
2022/01/05 02:29:06;;;;;;;;;;;11.30;90.90;;;;;;5010531;28;19936;-59
2022/01/05 02:31:32;;;;;;;;;;;11.30;91.00;;;;;;5028486;28;19921;-60
2022/01/05 02:33:57;;;;;;;;;;;11.30;91.20;;;;;;5012545;28;19909;-60
2022/01/05 02:36:23;;;;;;;;;;;11.20;91.10;;;;;;5030699;28;19917;-59
2022/01/05 02:38:49;;;;;;;;;;;11.20;91.10;;;;;;5030741;28;19916;-59
2022/01/05 02:41:14;;;;;;;;;;;11.20;90.90;;;;;;5023456;28;20285;-59
2022/01/05 02:43:40;;;;;;;;;;;11.20;90.90;;;;;;5029122;28;19916;-59
2022/01/05 02:46:08;;;;;;;;;;;11.20;90.90;;;;;;5010349;28;19955;-59
2022/01/05 02:48:34;;;;;;;;;;;11.10;91.00;;;;;;5011764;28;19983;-59
2022/01/05 02:50:59;;;;;;;;;;;11.10;91.00;;;;;;5030102;28;19917;-60
2022/01/05 02:53:25;;;;;;;;;;;11.10;91.10;;;;;;5030285;28;20345;-59
2022/01/05 02:55:51;;;;;;;;;;;11.10;91.20;;;;;;5005928;28;19914;-60
2022/01/05 02:58:16;;;;;;;;;;;11.10;91.20;;;;;;5011940;28;19913;-59
2022/01/05 03:00:42;;;;;;;;;;;11.10;91.00;;;;;;5013116;28;20458;-60
2022/01/05 03:03:07;;;;;;;;;;;11.10;91.00;;;;;;5029929;28;20011;-59
2022/01/05 03:05:33;;;;;;;;;;;11.00;90.90;;;;;;5030302;28;19999;-59
2022/01/05 03:07:58;;;;;;;;;;;11.00;90.90;;;;;;5011040;28;19916;-59
2022/01/05 03:10:23;;;;;;;;;;;10.90;90.80;;;;;;5013322;28;19916;-59
2022/01/05 03:12:49;;;;;;;;;;;10.90;90.70;;;;;;5013655;28;19913;-60
2022/01/05 03:15:14;;;;;;;;;;;10.90;90.70;;;;;;5012510;28;19927;-59
2022/01/05 03:17:40;;;;;;;;;;;10.80;90.70;;;;;;5012271;28;20288;-59
2022/01/05 03:20:06;;;;;;;;;;;10.80;90.70;;;;;;5028634;28;20003;-60
2022/01/05 03:22:31;;;;;;;;;;;10.80;90.70;;;;;;5010838;28;19917;-60
2022/01/05 03:24:56;;;;;;;;;;;10.70;90.60;;;;;;5006865;28;20043;-60
2022/01/05 03:27:22;;;;;;;;;;;10.70;90.60;;;;;;5031206;28;19916;-60
2022/01/05 03:29:47;;;;;;;;;;;10.60;90.60;;;;;;5029652;28;20012;-60
2022/01/05 03:32:13;;;;;;;;;;;10.60;90.60;;;;;;5027717;28;20202;-60
2022/01/05 03:34:39;;;;;;;;;;;10.60;90.60;;;;;;5029043;28;20361;-59
2022/01/05 03:37:04;;;;;;;;;;;10.50;90.50;;;;;;5029719;28;19909;-59
2022/01/05 03:39:30;;;;;;;;;;;10.60;90.50;;;;;;5028179;28;19913;-59
2022/01/05 03:41:55;;;;;;;;;;;10.50;90.40;;;;;;5011950;28;20353;-59
2022/01/05 03:44:21;;;;;;;;;;;10.50;90.40;;;;;;5028471;28;19967;-59
2022/01/05 03:46:47;;;;;;;;;;;10.50;90.30;;;;;;5011315;28;19909;-59
2022/01/05 03:49:12;;;;;;;;;;;10.50;90.30;;;;;;5011736;28;19917;-60
2022/01/05 03:51:37;;;;;;;;;;;10.40;90.40;;;;;;5012147;28;19979;-59
2022/01/05 03:54:03;;;;;;;;;;;10.40;90.30;;;;;;5029192;28;20140;-59
2022/01/05 03:56:28;;;;;;;;;;;10.40;90.30;;;;;;5011431;28;19979;-59
2022/01/05 03:58:54;;;;;;;;;;;10.40;90.40;;;;;;5024497;28;19932;-59
2022/01/05 04:01:19;;;;;;;;;;;10.40;90.40;;;;;;5006650;28;20357;-59
2022/01/05 04:03:45;;;;;;;;;;;10.40;90.30;;;;;;5030592;28;19916;-60
2022/01/05 04:06:10;;;;;;;;;;;10.40;90.30;;;;;;5027936;28;20326;-62
2022/01/05 04:08:36;;;;;;;;;;;10.30;90.20;;;;;;5011692;28;19909;-60
2022/01/05 04:11:01;;;;;;;;;;;10.30;90.20;;;;;;5010157;28;19935;-60
2022/01/05 04:13:27;;;;;;;;;;;10.30;90.20;;;;;;5012329;28;20296;-59
2022/01/05 04:15:52;;;;;;;;;;;10.30;90.20;;;;;;5028388;28;19948;-60
2022/01/05 04:18:17;;;;;;;;;;;10.30;90.20;;;;;;5010417;28;19983;-60
2022/01/05 04:20:43;;;;;;;;;;;10.30;90.20;;;;;;5012721;28;20211;-60
2022/01/05 04:23:08;;;;;;;;;;;10.20;90.30;;;;;;5020128;28;19909;-59
2022/01/05 04:25:34;;;;;;;;;;;10.20;90.30;;;;;;4998525;28;19914;-60
2022/01/05 04:28:00;;;;;;;;;;;10.20;90.30;;;;;;5028844;28;20292;-59
2022/01/05 04:30:25;;;;;;;;;;;10.20;90.20;;;;;;4994500;28;20358;-59
2022/01/05 04:32:51;;;;;;;;;;;10.20;90.30;;;;;;5016908;28;19936;-59
2022/01/05 04:35:16;;;;;;;;;;;10.20;90.30;;;;;;5010728;28;19909;-60
2022/01/05 04:37:42;;;;;;;;;;;10.10;90.20;;;;;;5011619;28;19909;-59
2022/01/05 04:40:08;;;;;;;;;;;10.10;90.30;;;;;;4996781;28;19959;-59
2022/01/05 04:42:33;;;;;;;;;;;10.10;90.20;;;;;;5002862;28;19910;-60
2022/01/05 04:44:59;;;;;;;;;;;10.10;90.30;;;;;;5011535;28;19940;-59
2022/01/05 04:47:24;;;;;;;;;;;10.10;90.30;;;;;;5026868;28;20006;-60
2022/01/05 04:49:50;;;;;;;;;;;10.00;90.30;;;;;;4996819;28;19910;-59
2022/01/05 04:52:15;;;;;;;;;;;10.10;90.30;;;;;;5003382;28;19909;-60
2022/01/05 04:54:41;;;;;;;;;;;10.00;90.40;;;;;;5028333;28;20414;-59
2022/01/05 04:57:06;;;;;;;;;;;10.00;90.40;;;;;;5002103;28;19916;-59
2022/01/05 04:59:32;;;;;;;;;;;10.00;90.30;;;;;;5003896;28;19963;-59
2022/01/05 05:01:58;;;;;;;;;;;10.00;90.30;;;;;;5008505;28;19932;-59
2022/01/05 05:04:23;;;;;;;;;;;10.00;90.30;;;;;;4996488;28;19913;-59
2022/01/05 05:06:49;;;;;;;;;;;10.00;90.20;;;;;;5003312;28;19916;-60
2022/01/05 05:09:15;;;;;;;;;;;10.00;90.30;;;;;;5006425;28;19921;-60
2022/01/05 05:11:41;;;;;;;;;;;9.90;90.20;;;;;;5024912;28;19995;-60
2022/01/05 05:14:06;;;;;;;;;;;9.90;90.30;;;;;;5003441;28;19974;-60
2022/01/05 05:16:32;;;;;;;;;;;9.90;90.30;;;;;;5007799;28;20291;-60
2022/01/05 05:18:57;;;;;;;;;;;9.90;90.30;;;;;;5011124;28;19910;-60
2022/01/05 05:21:22;;;;;;;;;;;9.90;90.70;;;;;;4993765;28;19955;-59
2022/01/05 05:23:48;;;;;;;;;;;9.80;90.50;;;;;;5002730;28;19921;-60
2022/01/05 05:26:13;;;;;;;;;;;9.80;90.50;;;;;;5001772;28;20336;-60
2022/01/05 05:28:39;;;;;;;;;;;9.80;90.40;;;;;;5027445;28;19980;-60
2022/01/05 05:31:04;;;;;;;;;;;9.80;90.40;;;;;;5007262;28;19915;-59
2022/01/05 05:33:30;;;;;;;;;;;9.80;90.40;;;;;;5007482;28;20376;-60
2022/01/05 05:35:55;;;;;;;;;;;9.80;90.40;;;;;;5024199;28;19914;-61
2022/01/05 05:38:21;;;;;;;;;;;9.80;90.50;;;;;;5026502;28;20361;-60
2022/01/05 05:40:46;;;;;;;;;;;9.70;90.40;;;;;;4992117;28;19964;-60
2022/01/05 05:43:12;;;;;;;;;;;9.70;90.50;;;;;;5008558;28;20592;-60
2022/01/05 05:45:38;;;;;;;;;;;9.70;90.50;;;;;;5026963;28;19971;-60
2022/01/05 05:48:03;;;;;;;;;;;9.70;90.50;;;;;;5020414;28;19931;-60
2022/01/05 05:50:29;;;;;;;;;;;9.70;90.60;;;;;;5009230;28;19921;-60
2022/01/05 05:52:55;;;;;;;;;;;9.80;90.60;;;;;;5009512;28;19909;-60
2022/01/05 05:55:20;;;;;;;;;;;9.70;90.60;;;;;;5010831;28;20705;-60
2022/01/05 05:57:46;;;;;;;;;;;9.60;90.50;;;;;;5011024;28;19959;-60
2022/01/05 06:00:11;;;;;;;;;;;9.60;90.50;;;;;;5027837;28;19955;-60
2022/01/05 06:02:37;;;;;;;;;;;9.60;90.50;;;;;;5007129;28;20008;-60
2022/01/05 06:05:02;;;;;;;;;;;9.60;90.50;;;;;;5004319;28;19964;-60
2022/01/05 06:07:28;;;;;;;;;;;9.50;90.60;;;;;;5008719;28;19917;-60
2022/01/05 06:09:53;;;;;;;;;;;9.50;90.70;;;;;;5003006;28;19959;-60
2022/01/05 06:12:19;;;;;;;;;;;9.50;90.70;;;;;;5005534;28;19928;-60
2022/01/05 06:14:44;;;;;;;;;;;9.40;90.70;;;;;;5002669;28;21522;-60
2022/01/05 06:17:10;;;;;;;;;;;9.40;90.70;;;;;;4990390;28;19924;-60
2022/01/05 06:19:35;;;;;;;;;;;9.40;90.70;;;;;;5020906;28;20329;-60
2022/01/05 06:22:00;;;;;;;;;;;9.40;90.70;;;;;;5017658;28;19921;-60
2022/01/05 06:24:26;;;;;;;;;;;9.40;90.80;;;;;;4986060;28;19991;-60
2022/01/05 06:26:52;;;;;;;;;;;9.40;90.80;;;;;;5023409;28;20369;-60
2022/01/05 06:29:18;;;;;;;;;;;9.30;90.80;;;;;;4993462;28;20055;-60
2022/01/05 06:31:44;;;;;;;;;;;9.40;90.70;;;;;;5010800;28;20016;-60
2022/01/05 06:34:09;;;;;;;;;;;9.30;90.70;;;;;;5003146;28;19928;-60
2022/01/05 06:36:34;;;;;;;;;;;9.30;90.80;;;;;;5003724;28;20442;-60
2022/01/05 06:39:01;;;;;;;;;;;9.30;90.80;;;;;;4991462;28;19913;-60
2022/01/05 06:41:27;;;;;;;;;;;9.30;90.80;;;;;;5029642;28;20002;-61
2022/01/05 06:43:52;;;;;;;;;;;9.30;90.80;;;;;;5029180;28;19978;-60
2022/01/05 06:46:18;;;;;;;;;;;9.30;90.80;;;;;;5020024;28;20385;-60
2022/01/05 06:48:43;;;;;;;;;;;9.20;90.80;;;;;;5010799;28;20058;-59
2022/01/05 06:51:09;;;;;;;;;;;9.20;90.90;;;;;;5002888;28;20411;-57
2022/01/05 06:53:34;;;;;;;;;;;9.20;91.00;;;;;;4989846;28;19945;-58
2022/01/05 06:55:59;;;;;;;;;;;9.20;91.10;;;;;;5010635;28;19936;-57
2022/01/05 06:58:25;;;;;;;;;;;9.20;91.00;;;;;;4999474;28;19913;-59
2022/01/05 07:00:50;;;;;;;;;;;9.20;90.90;;;;;;5004822;28;19921;-59
2022/01/05 07:03:16;;;;;;;;;;;9.20;90.80;;;;;;5006064;28;19917;-59
2022/01/05 07:05:41;;;;;;;;;;;9.20;90.80;;;;;;5017365;28;19925;-59
2022/01/05 07:08:07;;;;;;;;;;;9.20;90.80;;;;;;5003361;28;19917;-58
2022/01/05 07:10:32;;;;;;;;;;;9.10;90.80;;;;;;4996865;28;19932;-59
2022/01/05 07:12:58;;;;;;;;;;;9.10;90.80;;;;;;5009661;28;19924;-59
2022/01/05 07:15:25;;;;;;;;;;;9.10;90.90;;;;;;5011644;28;19924;-59
2022/01/05 07:17:50;;;;;;;;;;;9.00;90.80;;;;;;5027130;28;19916;-59
2022/01/05 07:20:16;;;;;;;;;;;9.10;90.90;;;;;;4999957;28;19996;-59
2022/01/05 07:22:42;;;;;;;;;;;9.00;90.90;;;;;;4989380;28;19918;-60
2022/01/05 07:25:08;;;;;;;;;;;9.00;91.00;;;;;;5010019;28;19921;-60
2022/01/05 07:27:33;;;;;;;;;;;9.00;90.90;;;;;;5007455;28;19919;-62
2022/01/05 07:29:58;;;;;;;;;;;9.00;90.90;;;;;;5004944;28;20471;-60
2022/01/05 07:32:24;;;;;;;;;;;9.00;90.90;;;;;;5018754;28;19999;-61
2022/01/05 07:34:49;;;;;;;;;;;9.00;90.90;;;;;;5022776;28;20368;-61
2022/01/05 07:37:15;;;;;;;;;;;9.00;90.80;;;;;;4992519;28;19923;-61
2022/01/05 07:39:40;;;;;;;;;;;9.00;90.90;;;;;;5005892;28;19947;-61
2022/01/05 07:42:06;;;;;;;;;;;8.90;90.80;;;;;;5010220;28;20265;-61
2022/01/05 07:44:32;;;;;;;;;;;8.90;90.80;;;;;;4996500;28;19971;-60
2022/01/05 07:46:57;;;;;;;;;;;8.90;90.90;;;;;;4990981;28;19957;-61
2022/01/05 07:49:23;;;;;;;;;;;8.90;90.80;;;;;;5034919;28;19917;-61
2022/01/05 07:51:48;;;;;;;;;;;8.90;90.80;;;;;;5015871;28;20377;-60
2022/01/05 07:54:14;;;;;;;;;;;8.90;90.90;;;;;;4994692;28;19917;-60
2022/01/05 07:56:39;;;;;;;;;;;8.80;90.70;;;;;;5003308;28;19921;-60
2022/01/05 07:59:04;;;;;;;;;;;8.90;90.80;;;;;;5006517;28;19948;-60
2022/01/05 08:01:30;;;;;;;;;;;8.80;90.80;;;;;;5005725;28;20264;-60
2022/01/05 08:03:55;;;;;;;;;;;8.80;90.70;;;;;;5007005;28;19913;-60
2022/01/05 08:06:21;;;;;;;;;;;8.80;90.80;;;;;;4999153;28;19921;-61
2022/01/05 08:08:46;;;;;;;;;;;8.80;90.80;;;;;;4994991;28;19911;-60
2022/01/05 08:11:12;;;;;;;;;;;8.80;90.80;;;;;;5014347;28;20556;-61
2022/01/05 08:13:37;;;;;;;;;;;8.80;90.60;;;;;;5020659;28;19925;-61
2022/01/05 08:16:03;;;;;;;;;;;8.80;90.60;;;;;;5017771;28;19917;-60
2022/01/05 08:18:28;;;;;;;;;;;8.80;90.50;;;;;;5012326;28;19917;-61
2022/01/05 08:20:55;;;;;;;;;;;8.80;90.50;;;;;;5006624;28;19937;-60
2022/01/05 08:23:20;;;;;;;;;;;8.80;90.50;;;;;;4996854;28;19913;-60
2022/01/05 08:25:46;;;;;;;;;;;8.70;90.50;;;;;;5016301;28;20494;-60
2022/01/05 08:28:11;;;;;;;;;;;8.70;90.40;;;;;;4985890;28;19921;-61
2022/01/05 08:30:37;;;;;;;;;;;8.70;90.40;;;;;;5015988;28;19920;-61
2022/01/05 08:33:03;;;;;;;;;;;8.70;90.40;;;;;;5000670;28;19913;-60
2022/01/05 08:35:28;;;;;;;;;;;8.70;90.40;;;;;;4999009;28;19922;-61
2022/01/05 08:37:54;;;;;;;;;;;8.70;90.40;;;;;;4994974;28;19961;-61
2022/01/05 08:40:20;;;;;;;;;;;8.70;90.40;;;;;;5008275;28;19924;-60
2022/01/05 08:42:46;;;;;;;;;;;8.70;90.30;;;;;;5011265;28;19971;-61
2022/01/05 08:45:11;;;;;;;;;;;8.70;90.40;;;;;;4993403;28;19973;-60
2022/01/05 08:47:37;;;;;;;;;;;8.60;90.20;;;;;;5007464;28;19913;-61
2022/01/05 08:50:03;;;;;;;;;;;8.60;90.10;;;;;;5025421;28;19917;-60
2022/01/05 08:52:28;;;;;;;;;;;8.60;90.10;;;;;;5003063;28;20280;-60
2022/01/05 08:54:54;;;;;;;;;;;8.60;90.20;;;;;;4987631;28;20357;-61
2022/01/05 08:57:19;;;;;;;;;;;8.60;90.20;;;;;;5023410;28;19956;-61
2022/01/05 08:59:45;;;;;;;;;;;8.60;90.20;;;;;;5015123;28;20036;-60
2022/01/05 09:02:15;;;;;;;;;;;8.60;90.20;;;;;;5016158;28;19921;-60
2022/01/05 09:04:41;;;;;;;;;;;8.60;90.10;;;;;;4990928;28;19972;-60
2022/01/05 09:07:06;;;;;;;;;;;8.50;90.10;;;;;;4998152;28;20008;-61
2022/01/05 09:09:32;;;;;;;;;;;8.60;90.10;;;;;;5007781;28;19992;-61
2022/01/05 09:11:57;;;;;;;;;;;8.50;90.00;;;;;;5011293;28;19912;-60
2022/01/05 09:14:23;;;;;;;;;;;8.50;90.00;;;;;;4998747;28;20394;-61
2022/01/05 09:16:48;;;;;;;;;;;8.50;90.00;;;;;;4983110;28;19917;-60
2022/01/05 09:19:13;;;;;;;;;;;8.50;90.00;;;;;;4994307;28;19917;-61
2022/01/05 09:21:40;;;;;;;;;;;8.50;90.00;;;;;;5002091;28;19925;-60
2022/01/05 09:24:05;;;;;;;;;;;8.50;89.80;;;;;;5000740;28;19913;-60
2022/01/05 09:26:31;;;;;;;;;;;8.50;90.00;;;;;;5016998;28;20424;-60
2022/01/05 09:28:56;;;;;;;;;;;8.50;89.70;;;;;;4992448;28;20008;-60
2022/01/05 09:31:22;;;;;;;;;;;8.50;89.70;;;;;;5002478;28;20466;-60
2022/01/05 09:33:47;;;;;;;;;;;8.50;89.60;;;;;;4998626;28;19925;-60
2022/01/05 09:36:18;;;;;;;;;;;8.50;89.40;;;;;;5016455;28;20245;-60
2022/01/05 09:44:03;;;;;;;;;;;8.40;89.20;;;;;;5016967;28;19960;-61
2022/01/05 09:46:38;;;;;;;;;;;8.40;89.20;;;;;;5001592;28;19921;-61
2022/01/05 09:49:07;;;;;;;;;;;8.40;89.20;;;;;;4985001;28;19924;-60
2022/01/05 09:51:32;;;;;;;;;;;8.40;89.10;;;;;;5013289;28;19967;-60
2022/01/05 09:53:59;;;;;;;;;;;8.40;88.90;;;;;;4998863;28;20351;-60
2022/01/05 09:56:25;;;;;;;;;;;8.40;88.90;;;;;;5012945;28;20447;-61
2022/01/05 09:58:50;;;;;;;;;;;8.40;89.20;;;;;;5011137;28;19921;-60
2022/01/05 10:01:17;;;;;;;;;;;8.40;89.00;;;;;;5011244;28;20288;-60
2022/01/05 10:03:42;;;;;;;;;;;8.40;88.90;;;;;;5001743;28;20606;-61
2022/01/05 10:06:08;;;;;;;;;;;8.40;89.00;;;;;;5008315;28;19922;-61
2022/01/05 10:08:33;;;;;;;;;;;8.40;89.20;;;;;;5004308;28;19921;-61
2022/01/05 10:10:59;;;;;;;;;;;8.40;89.10;;;;;;5006141;28;19996;-61
2022/01/05 10:13:24;;;;;;;;;;;8.40;89.20;;;;;;5002385;28;20254;-61
2022/01/05 10:15:50;;;;;;;;;;;8.40;89.10;;;;;;5012645;28;20030;-60
2022/01/05 10:18:19;;;;;;;;;;;8.40;88.80;;;;;;5017890;28;19913;-61
2022/01/05 10:21:14;;;;;;;;;;;8.40;88.70;;;;;;5002956;28;20028;-60
2022/01/05 10:23:45;;;;;;;;;;;8.40;89.30;;;;;;5016983;28;19921;-60
2022/01/05 10:26:22;;;;;;;;;;;8.40;88.50;;;;;;5015940;28;19932;-61
2022/01/05 10:28:47;;;;;;;;;;;8.40;88.90;;;;;;5003292;28;19932;-60
2022/01/05 10:31:14;;;;;;;;;;;8.30;88.20;;;;;;5013483;28;19921;-61
2022/01/05 10:33:39;;;;;;;;;;;8.40;88.10;;;;;;4999179;28;20297;-60
2022/01/05 10:36:04;;;;;;;;;;;8.40;88.10;;;;;;5001030;28;19913;-60
2022/01/05 10:38:30;;;;;;;;;;;8.40;88.00;;;;;;5006919;28;19936;-61
2022/01/05 10:40:55;;;;;;;;;;;8.30;87.70;;;;;;5022152;28;19917;-61
2022/01/05 10:43:21;;;;;;;;;;;8.40;87.50;;;;;;5012915;28;20349;-60
2022/01/05 10:45:47;;;;;;;;;;;8.30;87.10;;;;;;5004906;28;19928;-61
2022/01/05 10:48:16;;;;;;;;;;;8.30;86.90;;;;;;5002006;28;19913;-61
2022/01/05 10:50:42;;;;;;;;;;;8.40;87.00;;;;;;5002689;28;20280;-61
2022/01/05 10:53:11;;;;;;;;;;;8.10;86.80;;;;;;5007113;28;19921;-60
2022/01/05 10:55:40;;;;;;;;;;;8.40;87.20;;;;;;5007525;28;19989;-60
2022/01/05 10:58:06;;;;;;;;;;;8.40;87.70;;;;;;5003522;28;20258;-60
2022/01/05 11:00:41;;;;;;;;;;;8.40;87.20;;;;;;4995183;28;19948;-61
2022/01/05 11:03:26;;;;;;;;;;;8.40;86.80;;;;;;5019054;28;19921;-61
2022/01/05 11:06:01;;;;;;;;;;;8.50;86.70;;;;;;4992571;28;19928;-61
2022/01/05 11:08:27;;;;;;;;;;;8.40;86.60;;;;;;4996676;28;20369;-60
2022/01/05 11:10:52;;;;;;;;;;;8.40;86.80;;;;;;4988720;28;19917;-61
2022/01/05 11:13:18;;;;;;;;;;;8.50;86.80;;;;;;5007244;28;20600;-63
2022/01/05 11:15:43;;;;;;;;;;;8.40;86.70;;;;;;5018012;28;19917;-61
2022/01/05 11:18:19;;;;;;;;;;;8.50;86.80;;;;;;5017051;28;19925;-61
2022/01/05 11:20:50;;;;;;;;;;;8.50;86.60;;;;;;5005107;28;19928;-60
2022/01/05 11:23:16;;;;;;;;;;;8.40;86.60;;;;;;5015627;28;20337;-60
2022/01/05 11:25:42;;;;;;;;;;;8.50;86.30;;;;;;5003103;28;20019;-61
2022/01/05 11:28:07;;;;;;;;;;;8.50;86.30;;;;;;5005588;28;19913;-60
2022/01/05 11:30:33;;;;;;;;;;;8.50;86.40;;;;;;4999476;28;20576;-60
2022/01/05 11:32:59;;;;;;;;;;;8.50;86.30;;;;;;4999321;28;19997;-60
2022/01/05 11:35:24;;;;;;;;;;;8.50;86.30;;;;;;5007554;28;19948;-61
2022/01/05 11:37:49;;;;;;;;;;;8.60;86.30;;;;;;5012488;28;19925;-61
2022/01/05 11:40:15;;;;;;;;;;;8.50;86.20;;;;;;5005776;28;20013;-61
2022/01/05 11:42:40;;;;;;;;;;;8.60;86.20;;;;;;4999589;28;19928;-61
2022/01/05 11:45:07;;;;;;;;;;;8.60;86.10;;;;;;5010691;28;20331;-60
2022/01/05 11:47:34;;;;;;;;;;;8.60;85.80;;;;;;5010273;28;19913;-61
2022/01/05 11:50:18;;;;;;;;;;;8.60;85.70;;;;;;5003047;28;19920;-61
2022/01/05 11:53:00;;;;;;;;;;;8.60;85.80;;;;;;5020841;28;20005;-61
2022/01/05 11:55:30;;;;;;;;;;;8.70;85.80;;;;;;5023036;28;20114;-61
2022/01/05 11:58:15;;;;;;;;;;;8.60;85.40;;;;;;5021712;28;19916;-61
2022/01/05 12:00:40;;;;;;;;;;;8.60;85.40;;;;;;5022989;28;20323;-61
2022/01/05 12:03:06;;;;;;;;;;;8.60;85.00;;;;;;4991168;28;19921;-61
2022/01/05 12:05:50;;;;;;;;;;;8.60;85.10;;;;;;4996887;28;19928;-62
2022/01/05 12:08:34;;;;;;;;;;;8.60;85.10;;;;;;5023066;28;19923;-60
2022/01/05 12:11:00;;;;;;;;;;;8.60;85.00;;;;;;5016321;28;20692;-61
2022/01/05 12:13:35;;;;;;;;;;;8.60;84.80;;;;;;5003068;28;19978;-61
2022/01/05 12:16:01;;;;;;;;;;;8.60;84.60;;;;;;5000242;28;19968;-61
2022/01/05 12:18:28;;;;;;;;;;;8.60;84.60;;;;;;5016285;28;20377;-61
2022/01/05 12:20:54;;;;;;;;;;;8.60;84.30;;;;;;5015634;28;19921;-61
2022/01/05 12:23:22;;;;;;;;;;;8.60;84.30;;;;;;4993245;28;20388;-61
2022/01/05 12:26:07;;;;;;;;;;;8.60;84.20;;;;;;5007787;28;19928;-61
2022/01/05 12:28:33;;;;;;;;;;;8.60;84.40;;;;;;5022538;28;19932;-61
2022/01/05 12:30:58;;;;;;;;;;;8.60;84.10;;;;;;5021996;28;19920;-61
2022/01/05 12:33:25;;;;;;;;;;;8.70;83.80;;;;;;5016634;28;20383;-60
2022/01/05 12:35:57;;;;;;;;;;;8.60;83.30;;;;;;5005913;28;20387;-60
2022/01/05 12:38:33;;;;;;;;;;;8.70;83.50;;;;;;4998338;28;19928;-61
2022/01/05 12:40:59;;;;;;;;;;;8.70;83.60;;;;;;5010100;28;19948;-61
2022/01/05 12:43:24;;;;;;;;;;;8.60;83.30;;;;;;5017507;28;19971;-60
2022/01/05 12:45:52;;;;;;;;;;;8.60;82.90;;;;;;5020204;28;19925;-61
2022/01/05 12:48:47;;;;;;;;;;;8.60;83.00;;;;;;5019694;28;20289;-60
2022/01/05 12:51:25;;;;;;;;;;;8.60;83.20;;;;;;5000300;28;19971;-60
2022/01/05 12:53:52;;;;;;;;;;;8.60;83.00;;;;;;5016803;28;19917;-60
2022/01/05 12:56:24;;;;;;;;;;;8.60;82.80;;;;;;5016142;28;20008;-60
2022/01/05 12:58:51;;;;;;;;;;;8.60;82.20;;;;;;4996483;28;19925;-60
2022/01/05 13:01:17;;;;;;;;;;;8.60;82.50;;;;;;4999556;28;19976;-60
2022/01/05 13:03:43;;;;;;;;;;;8.60;82.50;;;;;;5000698;28;20009;-60
2022/01/05 13:06:24;;;;;;;;;;;8.60;82.40;;;;;;4995568;28;19922;-61
2022/01/05 13:08:50;;;;;;;;;;;8.70;82.30;;;;;;5012989;28;19918;-60
2022/01/05 13:11:31;;;;;;;;;;;8.60;82.40;;;;;;5004667;28;19918;-61
2022/01/05 13:14:09;;;;;;;;;;;8.70;82.60;;;;;;5004080;28;19918;-61
2022/01/05 13:16:34;;;;;;;;;;;8.70;82.40;;;;;;5002950;28;20465;-61
2022/01/05 13:19:00;;;;;;;;;;;8.40;82.30;;;;;;4996291;28;19921;-60
2022/01/05 13:21:25;;;;;;;;;;;8.70;82.50;;;;;;5005234;28;20364;-61
2022/01/05 13:23:54;;;;;;;;;;;8.70;82.40;;;;;;4995848;28;19921;-60
2022/01/05 13:26:20;;;;;;;;;;;8.70;82.10;;;;;;4991199;28;19930;-61
2022/01/05 13:28:45;;;;;;;;;;;8.70;82.10;;;;;;4994632;28;19924;-61
2022/01/05 13:31:11;;;;;;;;;;;8.70;81.90;;;;;;4996416;28;19948;-60
2022/01/05 13:33:36;;;;;;;;;;;8.70;81.60;;;;;;5003228;28;20318;-61
2022/01/05 13:36:02;;;;;;;;;;;8.70;81.50;;;;;;5011417;28;19917;-61
2022/01/05 13:38:27;;;;;;;;;;;8.70;81.10;;;;;;5001563;28;19968;-61
2022/01/05 13:40:54;;;;;;;;;;;8.70;81.10;;;;;;5000018;28;20260;-61
2022/01/05 13:43:21;;;;;;;;;;;8.80;81.10;;;;;;5010218;28;19979;-60
2022/01/05 13:45:48;;;;;;;;;;;8.80;81.10;;;;;;4997311;28;19922;-61
2022/01/05 13:48:23;;;;;;;;;;;8.80;80.80;;;;;;5000459;28;19976;-60
2022/01/05 13:50:50;;;;;;;;;;;8.80;80.80;;;;;;4994359;28;19928;-60
2022/01/05 13:53:16;;;;;;;;;;;8.80;81.30;;;;;;5007759;28;20413;-60
2022/01/05 13:55:45;;;;;;;;;;;8.80;81.10;;;;;;5000457;28;19937;-61
2022/01/05 13:58:14;;;;;;;;;;;8.80;81.20;;;;;;5007998;28;19968;-62
2022/01/05 14:00:39;;;;;;;;;;;8.80;80.80;;;;;;5029240;28;20384;-62
2022/01/05 14:03:05;;;;;;;;;;;8.80;80.60;;;;;;5003508;28;19925;-62
2022/01/05 14:05:31;;;;;;;;;;;8.80;80.70;;;;;;4999946;28;19925;-62
2022/01/05 14:08:08;;;;;;;;;;;8.90;80.50;;;;;;4999512;28;24071;-62
2022/01/05 14:10:36;;;;;;;;;;;8.90;80.10;;;;;;5010031;28;19925;-62
2022/01/05 14:13:02;;;;;;;;;;;9.00;80.20;;;;;;5010761;28;20655;-61
2022/01/05 14:15:28;;;;;;;;;;;8.80;80.10;;;;;;4992946;28;19921;-62
2022/01/05 14:18:00;;;;;;;;;;;8.80;80.00;;;;;;5010739;28;20003;-62
2022/01/05 14:20:26;;;;;;;;;;;8.80;80.00;;;;;;4997477;28;20323;-62
2022/01/05 14:23:07;;;;;;;;;;;8.80;80.20;;;;;;4995769;28;20446;-62
2022/01/05 14:25:41;;;;;;;;;;;8.80;80.10;;;;;;4999155;28;19951;-62
2022/01/05 14:28:13;;;;;;;;;;;8.80;79.90;;;;;;4998943;28;20511;-62